Time,TemperatureF,DewpointF,PressureIn,WindDirection,WindDirectionDegrees,WindSpeedMPH,WindSpeedGustMPH,Humidity,HourlyPrecipIn,Conditions,Clouds,dailyrainin,SoftwareType,DateUTC
2013-04-07 00:05:00,62.7,39.3,29.65,South,186,13.0,21.0,42,0.00,BKN,,0.00,WeatherDisplay:10.37,2013-04-07 05:05:00,
2013-04-07 00:15:00,61.9,43.0,29.66,South,189,13.0,20.0,50,0.00,RA,,0.02,WeatherDisplay:10.37,2013-04-07 05:15:00,
2013-04-07 00:25:00,60.0,42.8,29.67,South,190,10.0,14.0,53,0.00,RA,,0.02,WeatherDisplay:10.37,2013-04-07 05:25:00,
2013-04-07 00:30:00,60.0,42.3,29.67,South,187,14.0,29.0,52,0.00,SCT,,0.02,WeatherDisplay:10.37,2013-04-07 05:30:00,
2013-04-07 00:35:00,60.4,41.7,29.67,South,181,3.0,20.0,50,0.00,BKN,,0.02,WeatherDisplay:10.37,2013-04-07 05:35:00,
2013-04-07 00:40:00,60.4,41.7,29.68,South,190,5.0,15.0,50,0.00,BKN,,0.02,WeatherDisplay:10.37,2013-04-07 05:40:00,
2013-04-07 00:45:00,60.4,42.2,29.68,SSW,208,6.0,9.0,51,0.00,BKN,,0.02,WeatherDisplay:10.37,2013-04-07 05:45:00,
2013-04-07 00:55:00,60.4,42.2,29.68,SSW,210,9.0,14.0,51,0.00,-RA,,0.02,WeatherDisplay:10.37,2013-04-07 05:55:00,
2013-04-07 01:00:00,60.4,42.7,29.68,SSW,193,13.0,20.0,52,0.00,-RA,,0.02,WeatherDisplay:10.37,2013-04-07 06:00:00,
2013-04-07 01:05:00,60.4,42.7,29.68,South,190,5.0,17.0,52,0.00,-RA,,0.02,WeatherDisplay:10.37,2013-04-07 06:05:00,
2013-04-07 01:10:00,60.5,42.8,29.68,SSW,192,9.0,23.0,52,0.00,-RA,,0.02,WeatherDisplay:10.37,2013-04-07 06:10:00,
2013-04-07 01:15:00,60.9,43.1,29.68,SSW,195,12.0,24.0,52,0.00,-RA,,0.02,WeatherDisplay:10.37,2013-04-07 06:15:00,
2013-04-07 01:20:00,61.0,43.7,29.68,SSW,193,7.0,15.0,53,0.00,-RA,,0.02,WeatherDisplay:10.37,2013-04-07 06:20:00,
2013-04-07 01:30:00,60.9,43.6,29.68,SSW,197,7.0,11.0,53,0.00,-RA,,0.02,WeatherDisplay:10.37,2013-04-07 06:30:00,
2013-04-07 01:35:00,60.7,43.5,29.68,SSW,209,6.0,8.0,53,0.00,BKN,,0.02,WeatherDisplay:10.37,2013-04-07 06:35:00,
2013-04-07 01:40:00,60.9,43.6,29.68,SSW,202,10.0,20.0,53,0.00,BKN,,0.02,WeatherDisplay:10.37,2013-04-07 06:40:00,
2013-04-07 01:45:00,60.9,43.6,29.69,SSW,200,7.0,17.0,53,0.00,BKN,,0.02,WeatherDisplay:10.37,2013-04-07 06:45:00,
2013-04-07 01:55:00,60.7,43.9,29.69,SSW,213,8.0,27.0,54,0.00,SCT,,0.02,WeatherDisplay:10.37,2013-04-07 06:55:00,
2013-04-07 02:05:00,60.5,43.8,29.69,SSW,205,9.0,18.0,54,0.00,SCT,,0.02,WeatherDisplay:10.37,2013-04-07 07:05:00,
2013-04-07 02:10:00,60.5,44.2,29.68,SW,216,7.0,11.0,55,0.00,SCT,,0.02,WeatherDisplay:10.37,2013-04-07 07:10:00,
2013-04-07 02:15:00,60.2,44.0,29.69,SSW,212,10.0,11.0,55,0.00,CLR,,0.02,WeatherDisplay:10.37,2013-04-07 07:15:00,
2013-04-07 02:20:00,60.1,44.3,29.69,SSW,212,8.0,17.0,56,0.00,CLR,,0.02,WeatherDisplay:10.37,2013-04-07 07:20:00,
2013-04-07 02:25:00,59.9,44.2,29.69,SW,233,5.0,20.0,56,0.00,CLR,,0.02,WeatherDisplay:10.37,2013-04-07 07:25:00,
2013-04-07 02:30:00,59.6,44.3,29.70,SW,233,6.0,11.0,57,0.00,CLR,,0.02,WeatherDisplay:10.37,2013-04-07 07:30:00,
2013-04-07 02:40:00,59.2,44.4,29.70,SW,234,6.0,14.0,58,0.00,CLR,,0.02,WeatherDisplay:10.37,2013-04-07 07:40:00,
2013-04-07 02:50:00,58.8,44.5,29.70,WSW,245,5.0,8.0,59,0.00,CLR,,0.02,WeatherDisplay:10.37,2013-04-07 07:50:00,
2013-04-07 02:55:00,58.6,44.3,29.70,WSW,257,6.0,9.0,59,0.00,CLR,,0.02,WeatherDisplay:10.37,2013-04-07 07:55:00,
2013-04-07 03:10:00,58.0,44.2,29.71,SSW,210,3.0,11.0,60,0.00,CLR,,0.02,WeatherDisplay:10.37,2013-04-07 08:10:00,
2013-04-07 03:15:00,57.8,44.4,29.71,SW,222,7.0,14.0,61,0.00,CLR,,0.02,WeatherDisplay:10.37,2013-04-07 08:15:00,
2013-04-07 03:20:00,57.6,44.2,29.71,WSW,241,8.0,21.0,61,0.00,CLR,,0.02,WeatherDisplay:10.37,2013-04-07 08:20:00,
2013-04-07 03:30:00,57.3,44.0,29.72,WSW,257,6.0,18.0,61,0.00,CLR,,0.02,WeatherDisplay:10.37,2013-04-07 08:30:00,
2013-04-07 03:35:00,57.1,43.8,29.72,WSW,237,3.0,8.0,61,0.00,CLR,,0.02,WeatherDisplay:10.37,2013-04-07 08:35:00,
2013-04-07 03:45:00,56.9,43.6,29.72,West,259,7.0,11.0,61,0.00,CLR,,0.02,WeatherDisplay:10.37,2013-04-07 08:45:00,
2013-04-07 03:50:00,56.7,43.8,29.72,West,263,8.0,11.0,62,0.00,CLR,,0.02,WeatherDisplay:10.37,2013-04-07 08:50:00,
2013-04-07 04:00:00,56.5,43.6,29.72,WSW,257,8.0,17.0,62,0.00,CLR,,0.02,WeatherDisplay:10.37,2013-04-07 09:00:00,
2013-04-07 04:05:00,56.3,43.9,29.72,WSW,247,7.0,9.0,63,0.00,CLR,,0.02,WeatherDisplay:10.37,2013-04-07 09:05:00,
2013-04-07 04:10:00,56.2,43.8,29.73,SW,235,2.0,9.0,63,0.00,CLR,,0.02,WeatherDisplay:10.37,2013-04-07 09:10:00,
2013-04-07 04:15:00,56.0,43.6,29.73,WSW,258,6.0,15.0,63,0.00,CLR,,0.02,WeatherDisplay:10.37,2013-04-07 09:15:00,
2013-04-07 04:20:00,55.7,43.3,29.73,West,266,2.0,8.0,63,0.00,CLR,,0.02,WeatherDisplay:10.37,2013-04-07 09:20:00,
2013-04-07 04:25:00,55.6,43.6,29.73,West,265,1.0,11.0,64,0.00,CLR,,0.02,WeatherDisplay:10.37,2013-04-07 09:25:00,
2013-04-07 04:30:00,55.4,43.4,29.73,West,264,2.0,6.0,64,0.00,CLR,,0.02,WeatherDisplay:10.37,2013-04-07 09:30:00,
2013-04-07 04:35:00,55.1,43.2,29.73,WSW,246,5.0,8.0,64,0.00,CLR,,0.02,WeatherDisplay:10.37,2013-04-07 09:35:00,
2013-04-07 04:45:00,55.3,43.3,29.74,WSW,246,3.0,9.0,64,0.00,CLR,,0.02,WeatherDisplay:10.37,2013-04-07 09:45:00,
2013-04-07 04:50:00,55.1,43.1,29.75,West,265,6.0,9.0,64,0.00,CLR,,0.02,WeatherDisplay:10.37,2013-04-07 09:50:00,
2013-04-07 04:55:00,55.0,43.4,29.75,West,268,6.0,17.0,65,0.00,CLR,,0.02,WeatherDisplay:10.37,2013-04-07 09:55:00,
2013-04-07 05:00:00,54.8,43.3,29.75,West,270,6.0,11.0,65,0.00,CLR,,0.02,WeatherDisplay:10.37,2013-04-07 10:00:00,
2013-04-07 05:05:00,54.7,43.2,29.75,West,272,5.0,9.0,65,0.00,CLR,,0.02,WeatherDisplay:10.37,2013-04-07 10:05:00,
2013-04-07 05:10:00,54.5,43.0,29.75,West,270,5.0,11.0,65,0.00,CLR,,0.02,WeatherDisplay:10.37,2013-04-07 10:10:00,
2013-04-07 05:15:00,54.2,43.1,29.75,West,277,3.0,8.0,66,0.00,CLR,,0.02,WeatherDisplay:10.37,2013-04-07 10:15:00,
2013-04-07 05:25:00,53.9,42.8,29.76,WSW,258,5.0,15.0,66,0.00,CLR,,0.02,WeatherDisplay:10.37,2013-04-07 10:25:00,
2013-04-07 05:30:00,53.9,42.8,29.76,WSW,258,8.0,11.0,66,0.00,CLR,,0.02,WeatherDisplay:10.37,2013-04-07 10:30:00,
2013-04-07 05:35:00,53.8,42.7,29.76,West,269,5.0,11.0,66,0.00,CLR,,0.02,WeatherDisplay:10.37,2013-04-07 10:35:00,
2013-04-07 05:40:00,53.8,42.7,29.76,West,269,5.0,9.0,66,0.00,CLR,,0.02,WeatherDisplay:10.37,2013-04-07 10:40:00,
2013-04-07 05:50:00,53.5,42.8,29.77,West,269,5.0,8.0,67,0.00,CLR,,0.02,WeatherDisplay:10.37,2013-04-07 10:50:00,
2013-04-07 05:55:00,53.3,42.6,29.77,West,267,5.0,9.0,67,0.00,CLR,,0.02,WeatherDisplay:10.37,2013-04-07 10:55:00,
2013-04-07 06:00:00,53.2,42.5,29.78,West,274,2.0,6.0,67,0.00,CLR,,0.02,WeatherDisplay:10.37,2013-04-07 11:00:00,
2013-04-07 06:05:00,52.9,42.6,29.78,WNW,288,6.0,6.0,68,0.00,CLR,,0.02,WeatherDisplay:10.37,2013-04-07 11:05:00,
2013-04-07 06:15:00,52.8,42.5,29.78,West,273,2.0,8.0,68,0.00,CLR,,0.02,WeatherDisplay:10.37,2013-04-07 11:15:00,
2013-04-07 06:20:00,52.6,42.3,29.78,West,281,3.0,6.0,68,0.00,CLR,,0.02,WeatherDisplay:10.37,2013-04-07 11:20:00,
2013-04-07 06:30:00,52.3,42.0,29.78,West,279,6.0,11.0,68,0.00,CLR,,0.02,WeatherDisplay:10.37,2013-04-07 11:30:00,
2013-04-07 06:40:00,52.0,41.8,29.79,West,262,8.0,11.0,68,0.00,CLR,,0.02,WeatherDisplay:10.37,2013-04-07 11:40:00,
2013-04-07 06:45:00,51.9,41.7,29.80,West,271,3.0,8.0,68,0.00,CLR,,0.02,WeatherDisplay:10.37,2013-04-07 11:45:00,
2013-04-07 06:55:00,51.7,41.5,29.80,West,276,3.0,11.0,68,0.00,CLR,,0.02,WeatherDisplay:10.37,2013-04-07 11:55:00,
2013-04-07 07:00:00,51.7,41.1,29.80,West,272,5.0,11.0,67,0.00,CLR,,0.02,WeatherDisplay:10.37,2013-04-07 12:00:00,
2013-04-07 07:05:00,52.0,41.0,29.82,West,264,6.0,9.0,66,0.00,CLR,,0.02,WeatherDisplay:10.37,2013-04-07 12:05:00,
2013-04-07 07:15:00,52.3,41.3,29.82,West,280,7.0,11.0,66,0.00,CLR,,0.02,WeatherDisplay:10.37,2013-04-07 12:15:00,
2013-04-07 07:20:00,52.3,41.7,29.83,WNW,284,5.0,8.0,67,0.00,CLR,,0.02,WeatherDisplay:10.37,2013-04-07 12:20:00,
2013-04-07 07:35:00,51.9,42.0,29.84,WNW,296,3.0,6.0,69,0.00,CLR,,0.02,WeatherDisplay:10.37,2013-04-07 12:35:00,
2013-04-07 07:40:00,51.7,41.8,29.84,NW,316,2.0,8.0,69,0.00,CLR,,0.02,WeatherDisplay:10.37,2013-04-07 12:40:00,
2013-04-07 07:45:00,51.4,41.9,29.84,NW,315,5.0,6.0,70,0.00,CLR,,0.02,WeatherDisplay:10.37,2013-04-07 12:45:00,
2013-04-07 07:50:00,51.3,41.8,29.84,WNW,289,2.0,8.0,70,0.00,CLR,,0.02,WeatherDisplay:10.37,2013-04-07 12:50:00,
2013-04-07 07:55:00,51.1,42.0,29.84,WNW,287,0.0,5.0,71,0.00,CLR,,0.02,WeatherDisplay:10.37,2013-04-07 12:55:00,
2013-04-07 08:00:00,51.3,42.2,29.84,WNW,303,0.0,8.0,71,0.00,CLR,,0.02,WeatherDisplay:10.37,2013-04-07 13:00:00,
2013-04-07 08:10:00,51.7,42.6,29.85,NW,311,2.0,5.0,71,0.00,CLR,,0.02,WeatherDisplay:10.37,2013-04-07 13:10:00,
2013-04-07 08:15:00,51.9,42.4,29.85,WNW,298,9.0,9.0,70,0.00,CLR,,0.02,WeatherDisplay:10.37,2013-04-07 13:15:00,
2013-04-07 08:20:00,52.0,42.5,29.85,WNW,285,6.0,12.0,70,0.00,CLR,,0.02,WeatherDisplay:10.37,2013-04-07 13:20:00,
2013-04-07 08:25:00,52.2,42.7,29.85,West,279,5.0,12.0,70,0.00,CLR,,0.02,WeatherDisplay:10.37,2013-04-07 13:25:00,
2013-04-07 08:30:00,52.3,42.8,29.85,WNW,287,7.0,12.0,70,0.00,CLR,,0.02,WeatherDisplay:10.37,2013-04-07 13:30:00,
2013-04-07 08:40:00,52.8,42.9,29.85,WNW,298,2.0,9.0,69,0.00,CLR,,0.02,WeatherDisplay:10.37,2013-04-07 13:40:00,
2013-04-07 08:45:00,53.2,43.3,29.85,WNW,294,6.0,9.0,69,0.00,CLR,,0.02,WeatherDisplay:10.37,2013-04-07 13:45:00,
2013-04-07 08:50:00,53.3,43.0,29.85,WNW,293,5.0,9.0,68,0.00,CLR,,0.02,WeatherDisplay:10.37,2013-04-07 13:50:00,
2013-04-07 09:00:00,53.6,42.9,29.85,WNW,290,7.0,9.0,67,0.00,CLR,,0.02,WeatherDisplay:10.37,2013-04-07 14:00:00,
2013-04-07 09:05:00,53.8,43.1,29.85,West,280,8.0,14.0,67,0.00,CLR,,0.02,WeatherDisplay:10.37,2013-04-07 14:05:00,
2013-04-07 09:10:00,54.1,43.0,29.85,WNW,292,6.0,8.0,66,0.00,CLR,,0.02,WeatherDisplay:10.37,2013-04-07 14:10:00,
2013-04-07 09:15:00,54.5,43.3,29.85,NW,309,1.0,8.0,66,0.00,CLR,,0.02,WeatherDisplay:10.37,2013-04-07 14:15:00,
2013-04-07 09:20:00,55.1,43.1,29.85,WNW,293,5.0,9.0,64,0.00,CLR,,0.02,WeatherDisplay:10.37,2013-04-07 14:20:00,
2013-04-07 09:25:00,55.4,42.6,29.85,WNW,282,8.0,11.0,62,0.00,CLR,,0.02,WeatherDisplay:10.37,2013-04-07 14:25:00,
2013-04-07 09:35:00,56.0,42.3,29.85,WNW,293,6.0,11.0,60,0.00,CLR,,0.02,WeatherDisplay:10.37,2013-04-07 14:35:00,
2013-04-07 09:40:00,56.3,42.6,29.85,WNW,296,8.0,9.0,60,0.00,CLR,,0.02,WeatherDisplay:10.37,2013-04-07 14:40:00,
2013-04-07 09:50:00,57.0,41.9,29.85,NW,324,2.0,11.0,57,0.00,CLR,,0.02,WeatherDisplay:10.37,2013-04-07 14:50:00,
2013-04-07 09:55:00,57.6,42.0,29.86,NW,316,7.0,11.0,56,0.00,CLR,,0.02,WeatherDisplay:10.37,2013-04-07 14:55:00,
2013-04-07 10:05:00,58.5,41.9,29.86,NW,306,3.0,14.0,54,0.00,CLR,,0.02,WeatherDisplay:10.37,2013-04-07 15:05:00,
2013-04-07 10:10:00,58.9,42.3,29.86,NW,313,6.0,11.0,54,0.00,CLR,,0.02,WeatherDisplay:10.37,2013-04-07 15:10:00,
2013-04-07 10:20:00,59.8,41.6,29.86,WNW,300,8.0,14.0,51,0.00,CLR,,0.02,WeatherDisplay:10.37,2013-04-07 15:20:00,
2013-04-07 10:25:00,60.1,41.4,29.86,NW,308,3.0,14.0,50,0.00,CLR,,0.02,WeatherDisplay:10.37,2013-04-07 15:25:00,
2013-04-07 10:35:00,60.5,41.8,29.87,NW,324,10.0,15.0,50,0.00,CLR,,0.02,WeatherDisplay:10.37,2013-04-07 15:35:00,
2013-04-07 10:40:00,60.5,41.2,29.87,NW,315,3.0,9.0,49,0.00,CLR,,0.02,WeatherDisplay:10.37,2013-04-07 15:40:00,
2013-04-07 10:45:00,61.0,41.6,29.87,NW,314,5.0,9.0,49,0.00,CLR,,0.02,WeatherDisplay:10.37,2013-04-07 15:45:00,
2013-04-07 10:55:00,61.6,41.2,29.87,WNW,296,3.0,11.0,47,0.00,CLR,,0.02,WeatherDisplay:10.37,2013-04-07 15:55:00,
2013-04-07 11:00:00,62.0,41.6,29.87,WNW,294,3.0,6.0,47,0.00,CLR,,0.02,WeatherDisplay:10.37,2013-04-07 16:00:00,
2013-04-07 11:05:00,62.6,42.1,29.88,WNW,297,5.0,11.0,47,0.00,CLR,,0.02,WeatherDisplay:10.37,2013-04-07 16:05:00,
2013-04-07 11:15:00,63.0,41.9,29.87,West,260,2.0,11.0,46,0.00,CLR,,0.02,WeatherDisplay:10.37,2013-04-07 16:15:00,
2013-04-07 11:20:00,63.4,41.7,29.87,West,263,9.0,12.0,45,0.00,CLR,,0.02,WeatherDisplay:10.37,2013-04-07 16:20:00,
2013-04-07 11:25:00,63.5,40.6,29.87,WNW,289,7.0,15.0,43,0.00,CLR,,0.02,WeatherDisplay:10.37,2013-04-07 16:25:00,
2013-04-07 11:30:00,63.6,41.3,29.87,WNW,296,10.0,14.0,44,0.00,CLR,,0.02,WeatherDisplay:10.37,2013-04-07 16:30:00,
2013-04-07 11:40:00,64.0,40.5,29.87,WNW,286,8.0,11.0,42,0.00,CLR,,0.02,WeatherDisplay:10.37,2013-04-07 16:40:00,
2013-04-07 11:45:00,64.3,40.7,29.87,WNW,290,9.0,17.0,42,0.00,CLR,,0.02,WeatherDisplay:10.37,2013-04-07 16:45:00,
2013-04-07 11:55:00,64.2,40.6,29.87,WNW,286,10.0,18.0,42,0.00,CLR,,0.02,WeatherDisplay:10.37,2013-04-07 16:55:00,
2013-04-07 12:05:00,64.4,41.4,29.88,WNW,301,6.0,10.0,43,0.00,CLR,,0.02,WeatherDisplay:10.37,2013-04-07 17:05:00,
2013-04-07 12:10:00,64.9,40.6,29.88,West,278,3.0,14.0,41,0.00,CLR,,0.02,WeatherDisplay:10.37,2013-04-07 17:10:00,
2013-04-07 12:15:00,65.6,41.3,29.88,WNW,283,5.0,8.0,41,0.00,CLR,,0.02,WeatherDisplay:10.37,2013-04-07 17:15:00,
2013-04-07 12:20:00,65.7,40.7,29.88,WNW,285,8.0,14.0,40,0.00,CLR,,0.02,WeatherDisplay:10.37,2013-04-07 17:20:00,
2013-04-07 12:25:00,65.6,41.3,29.87,WNW,285,7.0,9.0,41,0.00,CLR,,0.02,WeatherDisplay:10.37,2013-04-07 17:25:00,
2013-04-07 12:30:00,65.8,40.8,29.87,NW,313,6.0,14.0,40,0.00,CLR,,0.02,WeatherDisplay:10.37,2013-04-07 17:30:00,
2013-04-07 12:40:00,66.1,40.4,29.87,WNW,303,7.0,11.0,39,0.00,CLR,,0.02,WeatherDisplay:10.37,2013-04-07 17:40:00,
2013-04-07 12:45:00,66.3,40.6,29.87,WNW,291,6.0,14.0,39,0.00,CLR,,0.02,WeatherDisplay:10.37,2013-04-07 17:45:00,
2013-04-07 12:55:00,66.4,40.7,29.87,NW,309,10.0,15.0,39,0.00,CLR,,0.02,WeatherDisplay:10.37,2013-04-07 17:55:00,
2013-04-07 13:00:00,66.6,40.2,29.86,NNW,332,6.0,15.0,38,0.00,CLR,,0.02,WeatherDisplay:10.37,2013-04-07 18:00:00,
2013-04-07 13:10:00,67.1,40.6,29.86,NNW,328,6.0,14.0,38,0.00,CLR,,0.02,WeatherDisplay:10.37,2013-04-07 18:10:00,
2013-04-07 13:20:00,67.9,40.7,29.86,NW,314,9.0,14.0,37,0.00,CLR,,0.02,WeatherDisplay:10.37,2013-04-07 18:20:00,
2013-04-07 13:25:00,68.3,40.3,29.86,West,281,5.0,14.0,36,0.00,CLR,,0.02,WeatherDisplay:10.37,2013-04-07 18:25:00,
2013-04-07 13:30:00,68.4,39.7,29.86,WNW,299,14.0,18.0,35,0.00,CLR,,0.02,WeatherDisplay:10.37,2013-04-07 18:30:00,
2013-04-07 13:35:00,68.4,40.4,29.86,NW,309,8.0,9.0,36,0.00,CLR,,0.02,WeatherDisplay:10.37,2013-04-07 18:35:00,
2013-04-07 13:40:00,68.4,40.4,29.86,West,275,2.0,15.0,36,0.00,CLR,,0.02,WeatherDisplay:10.37,2013-04-07 18:40:00,
2013-04-07 13:50:00,68.6,38.3,29.86,WNW,299,8.0,14.0,33,0.00,CLR,,0.02,WeatherDisplay:10.37,2013-04-07 18:50:00,
2013-04-07 14:00:00,69.0,40.2,29.86,WNW,287,6.0,8.0,35,0.00,CLR,,0.02,WeatherDisplay:10.37,2013-04-07 19:00:00,
2013-04-07 14:10:00,70.4,39.1,29.86,WNW,293,8.0,11.0,32,0.00,CLR,,0.02,WeatherDisplay:10.37,2013-04-07 19:10:00,
2013-04-07 14:15:00,70.4,39.1,29.86,NW,325,14.0,17.0,32,0.00,CLR,,0.02,WeatherDisplay:10.37,2013-04-07 19:15:00,
2013-04-07 14:25:00,70.3,39.0,29.86,WNW,287,7.0,15.0,32,0.00,CLR,,0.02,WeatherDisplay:10.37,2013-04-07 19:25:00,
2013-04-07 14:35:00,70.9,38.7,29.86,NW,306,3.0,8.0,31,0.00,CLR,,0.02,WeatherDisplay:10.37,2013-04-07 19:35:00,
2013-04-07 14:40:00,71.5,39.3,29.86,NW,321,8.0,12.0,31,0.00,CLR,,0.02,WeatherDisplay:10.37,2013-04-07 19:40:00,
2013-04-07 14:45:00,71.3,35.6,29.86,WNW,290,7.0,17.0,27,0.00,CLR,,0.02,WeatherDisplay:10.37,2013-04-07 19:45:00,
2013-04-07 14:50:00,71.5,38.4,29.85,NW,306,3.0,8.0,30,0.00,CLR,,0.02,WeatherDisplay:10.37,2013-04-07 19:50:00,
2013-04-07 15:00:00,71.5,36.7,29.85,WNW,288,10.0,17.0,28,0.00,CLR,,0.02,WeatherDisplay:10.37,2013-04-07 20:00:00,
2013-04-07 15:05:00,71.3,36.5,29.85,WNW,296,7.0,11.0,28,0.00,CLR,,0.02,WeatherDisplay:10.37,2013-04-07 20:05:00,
2013-04-07 15:15:00,71.3,35.6,29.85,NW,321,6.0,12.0,27,0.00,CLR,,0.02,WeatherDisplay:10.37,2013-04-07 20:15:00,
2013-04-07 15:20:00,71.2,37.3,29.84,NNW,334,2.0,6.0,29,0.00,CLR,,0.02,WeatherDisplay:10.37,2013-04-07 20:20:00,
2013-04-07 15:30:00,70.6,36.8,29.84,West,269,9.0,18.0,29,0.00,CLR,,0.02,WeatherDisplay:10.37,2013-04-07 20:30:00,
2013-04-07 15:40:00,70.4,36.6,29.85,NW,325,6.0,11.0,29,0.00,CLR,,0.02,WeatherDisplay:10.37,2013-04-07 20:40:00,
2013-04-07 15:45:00,70.3,37.4,29.84,NNW,339,5.0,8.0,30,0.00,CLR,,0.02,WeatherDisplay:10.37,2013-04-07 20:45:00,
2013-04-07 16:00:00,70.6,38.5,29.84,NNW,327,8.0,14.0,31,0.00,CLR,,0.02,WeatherDisplay:10.37,2013-04-07 21:00:00,
2013-04-07 16:05:00,70.8,37.8,29.84,NW,316,6.0,9.0,30,0.00,CLR,,0.02,WeatherDisplay:10.37,2013-04-07 21:05:00,
2013-04-07 16:10:00,70.9,36.1,29.84,WNW,294,3.0,8.0,28,0.00,CLR,,0.02,WeatherDisplay:10.37,2013-04-07 21:10:00,
2013-04-07 16:20:00,71.3,37.4,29.84,WNW,287,0.0,8.0,29,0.00,CLR,,0.02,WeatherDisplay:10.37,2013-04-07 21:20:00,
2013-04-07 16:30:00,71.1,37.2,29.84,North,350,1.0,3.0,29,0.00,CLR,,0.02,WeatherDisplay:10.37,2013-04-07 21:30:00,
2013-04-07 16:35:00,71.2,37.3,29.84,NE,52,5.0,5.0,29,0.00,CLR,,0.02,WeatherDisplay:10.37,2013-04-07 21:35:00,
2013-04-07 16:40:00,71.2,37.3,29.84,NNW,341,7.0,7.0,29,0.00,CLR,,0.02,WeatherDisplay:10.37,2013-04-07 21:40:00,
2013-04-07 16:55:00,71.5,37.6,29.84,NW,306,1.0,5.0,29,0.00,CLR,,0.02,WeatherDisplay:10.37,2013-04-07 21:55:00,
2013-04-07 17:00:00,71.3,37.4,29.84,NE,45,1.0,5.0,29,0.00,CLR,,0.02,WeatherDisplay:10.37,2013-04-07 22:00:00,
2013-04-07 17:05:00,71.5,36.7,29.84,North,353,3.0,5.0,28,0.00,CLR,,0.02,WeatherDisplay:10.37,2013-04-07 22:05:00,
2013-04-07 17:10:00,71.3,36.5,29.84,WNW,300,0.0,5.0,28,0.00,CLR,,0.02,WeatherDisplay:10.37,2013-04-07 22:10:00,
2013-04-07 17:20:00,71.1,39.7,29.84,NW,306,2.0,3.0,32,0.00,CLR,,0.02,WeatherDisplay:10.37,2013-04-07 22:20:00,
2013-04-07 17:25:00,70.9,37.0,29.84,NW,325,3.0,5.0,29,0.00,CLR,,0.02,WeatherDisplay:10.37,2013-04-07 22:25:00,
2013-04-07 17:35:00,70.8,37.8,29.84,NNW,331,0.0,3.0,30,0.00,CLR,,0.02,WeatherDisplay:10.37,2013-04-07 22:35:00,
2013-04-07 17:40:00,70.6,36.8,29.84,NNW,331,2.0,3.0,29,0.00,CLR,,0.02,WeatherDisplay:10.37,2013-04-07 22:40:00,
2013-04-07 17:45:00,70.4,38.3,29.84,NNW,331,0.0,2.0,31,0.00,CLR,,0.02,WeatherDisplay:10.37,2013-04-07 22:45:00,
2013-04-07 17:50:00,70.4,36.6,29.84,NNW,331,1.0,3.0,29,0.00,CLR,,0.02,WeatherDisplay:10.37,2013-04-07 22:50:00,
2013-04-07 18:00:00,70.3,37.4,29.83,NNW,331,0.0,3.0,30,0.00,CLR,,0.02,WeatherDisplay:10.37,2013-04-07 23:00:00,
2013-04-07 18:05:00,70.0,37.1,29.83,NE,43,2.0,5.0,30,0.00,CLR,,0.02,WeatherDisplay:10.37,2013-04-07 23:05:00,
2013-04-07 18:15:00,69.8,37.8,29.83,ENE,72,2.0,3.0,31,0.00,CLR,,0.02,WeatherDisplay:10.37,2013-04-07 23:15:00,
2013-04-07 18:25:00,69.6,38.4,29.83,ENE,72,0.0,2.0,32,0.00,CLR,,0.02,WeatherDisplay:10.37,2013-04-07 23:25:00,
2013-04-07 18:30:00,69.4,38.3,29.83,ENE,72,0.0,2.0,32,0.00,CLR,,0.02,WeatherDisplay:10.37,2013-04-07 23:30:00,
2013-04-07 18:40:00,69.3,38.2,29.83,ENE,72,1.0,3.0,32,0.00,CLR,,0.02,WeatherDisplay:10.37,2013-04-07 23:40:00,
2013-04-07 18:45:00,69.1,38.0,29.83,ENE,72,1.0,3.0,32,0.00,CLR,,0.02,WeatherDisplay:10.37,2013-04-07 23:45:00,
2013-04-07 18:50:00,69.1,38.8,29.83,ENE,72,0.0,3.0,33,0.00,CLR,,0.02,WeatherDisplay:10.37,2013-04-07 23:50:00,
2013-04-07 18:55:00,68.8,39.3,29.82,ENE,72,0.0,2.0,34,0.00,CLR,,0.02,WeatherDisplay:10.37,2013-04-07 23:55:00,
2013-04-07 19:05:00,68.4,38.9,29.83,ENE,72,0.0,0.0,34,0.00,CLR,,0.02,WeatherDisplay:10.37,2013-04-08 00:05:00,
2013-04-07 19:10:00,68.0,38.6,29.83,ENE,72,0.0,0.0,34,0.00,CLR,,0.02,WeatherDisplay:10.37,2013-04-08 00:10:00,
2013-04-07 19:15:00,67.8,39.9,29.83,ENE,72,0.0,0.0,36,0.00,CLR,,0.02,WeatherDisplay:10.37,2013-04-08 00:15:00,
2013-04-07 19:25:00,66.9,39.8,29.83,ENE,72,0.0,0.0,37,0.00,CLR,,0.02,WeatherDisplay:10.37,2013-04-08 00:25:00,
2013-04-07 19:35:00,65.8,39.5,29.83,ENE,72,0.0,0.0,38,0.00,CLR,,0.02,WeatherDisplay:10.37,2013-04-08 00:35:00,
2013-04-07 19:40:00,65.3,39.7,29.83,ENE,72,0.0,0.0,39,0.00,CLR,,0.02,WeatherDisplay:10.37,2013-04-08 00:40:00,
2013-04-07 19:45:00,64.7,40.5,29.83,ENE,72,0.0,2.0,41,0.00,CLR,,0.02,WeatherDisplay:10.37,2013-04-08 00:45:00,
2013-04-07 19:50:00,64.2,39.3,29.83,ENE,72,0.0,0.0,40,0.00,CLR,,0.02,WeatherDisplay:10.37,2013-04-08 00:50:00,
2013-04-07 20:00:00,63.2,39.1,29.83,ENE,72,0.0,0.0,41,0.00,CLR,,0.02,WeatherDisplay:10.37,2013-04-08 01:00:00,
2013-04-07 20:05:00,63.1,39.0,29.83,ENE,72,0.0,0.0,41,0.00,CLR,,0.02,WeatherDisplay:10.37,2013-04-08 01:05:00,
2013-04-07 20:10:00,62.6,39.2,29.83,ENE,72,0.0,0.0,42,0.00,CLR,,0.02,WeatherDisplay:10.37,2013-04-08 01:10:00,
2013-04-07 20:15:00,62.4,39.0,29.83,ENE,72,0.0,0.0,42,0.00,CLR,,0.02,WeatherDisplay:10.37,2013-04-08 01:15:00,
2013-04-07 20:25:00,61.8,39.1,29.83,ENE,72,0.0,0.0,43,0.00,CLR,,0.02,WeatherDisplay:10.37,2013-04-08 01:25:00,
2013-04-07 20:30:00,61.6,38.9,29.83,ENE,72,0.0,0.0,43,0.00,CLR,,0.02,WeatherDisplay:10.37,2013-04-08 01:30:00,
2013-04-07 20:40:00,61.2,39.1,29.84,ENE,72,0.0,0.0,44,0.00,CLR,,0.02,WeatherDisplay:10.37,2013-04-08 01:40:00,
2013-04-07 20:45:00,60.9,39.4,29.84,ENE,72,0.0,0.0,45,0.00,CLR,,0.02,WeatherDisplay:10.37,2013-04-08 01:45:00,
2013-04-07 20:50:00,60.7,39.2,29.84,ENE,72,0.0,0.0,45,0.00,CLR,,0.02,WeatherDisplay:10.37,2013-04-08 01:50:00,
2013-04-07 20:55:00,60.4,39.0,29.84,ENE,72,0.0,0.0,45,0.00,CLR,,0.02,WeatherDisplay:10.37,2013-04-08 01:55:00,
2013-04-07 21:05:00,59.8,39.0,29.84,ENE,72,0.0,0.0,46,0.00,CLR,,0.02,WeatherDisplay:10.37,2013-04-08 02:05:00,
2013-04-07 21:10:00,59.6,39.3,29.84,ENE,72,0.0,0.0,47,0.00,CLR,,0.02,WeatherDisplay:10.37,2013-04-08 02:10:00,
2013-04-07 21:20:00,59.2,39.0,29.85,ENE,72,0.0,0.0,47,0.00,CLR,,0.02,WeatherDisplay:10.37,2013-04-08 02:20:00,
2013-04-07 21:25:00,59.2,39.0,29.85,ENE,72,0.0,0.0,47,0.00,CLR,,0.02,WeatherDisplay:10.37,2013-04-08 02:25:00,
2013-04-07 21:30:00,59.0,38.8,29.85,ENE,72,0.0,0.0,47,0.00,CLR,,0.02,WeatherDisplay:10.37,2013-04-08 02:30:00,
2013-04-07 21:40:00,58.7,39.0,29.85,ENE,72,0.0,2.0,48,0.00,CLR,,0.02,WeatherDisplay:10.37,2013-04-08 02:40:00,
2013-04-07 21:45:00,58.7,39.0,29.85,ENE,72,0.0,0.0,48,0.00,CLR,,0.02,WeatherDisplay:10.37,2013-04-08 02:45:00,
2013-04-07 21:55:00,58.3,39.2,29.85,ENE,72,0.0,0.0,49,0.00,CLR,,0.02,WeatherDisplay:10.37,2013-04-08 02:55:00,
2013-04-07 22:05:00,58.0,38.9,29.85,ENE,72,0.0,0.0,49,0.00,CLR,,0.02,WeatherDisplay:10.37,2013-04-08 03:05:00,
2013-04-07 22:10:00,57.8,38.8,29.85,ENE,72,0.0,0.0,49,0.00,CLR,,0.02,WeatherDisplay:10.37,2013-04-08 03:10:00,
2013-04-07 22:25:00,57.5,38.5,29.85,ENE,72,0.0,0.0,49,0.00,CLR,,0.02,WeatherDisplay:10.37,2013-04-08 03:25:00,
2013-04-07 22:30:00,57.5,39.0,29.85,ENE,72,0.0,0.0,50,0.00,CLR,,0.02,WeatherDisplay:10.37,2013-04-08 03:30:00,
2013-04-07 22:40:00,56.9,39.4,29.85,ENE,72,0.0,0.0,52,0.00,CLR,,0.02,WeatherDisplay:10.37,2013-04-08 03:40:00,
2013-04-07 22:45:00,56.7,39.7,29.85,ENE,72,0.0,0.0,53,0.00,CLR,,0.02,WeatherDisplay:10.37,2013-04-08 03:45:00,
2013-04-07 22:50:00,56.6,39.7,29.85,ENE,72,1.0,2.0,53,0.00,CLR,,0.02,WeatherDisplay:10.37,2013-04-08 03:50:00,
2013-04-07 22:55:00,56.5,40.5,29.85,ENE,72,0.0,2.0,55,0.00,CLR,,0.02,WeatherDisplay:10.37,2013-04-08 03:55:00,
2013-04-07 23:00:00,56.3,39.9,29.85,ENE,72,0.0,0.0,54,0.00,CLR,,0.02,WeatherDisplay:10.37,2013-04-08 04:00:00,
2013-04-07 23:05:00,56.3,39.9,29.85,ENE,72,1.0,2.0,54,0.00,CLR,,0.02,WeatherDisplay:10.37,2013-04-08 04:05:00,
2013-04-07 23:10:00,56.3,40.3,29.84,ENE,72,0.0,2.0,55,0.00,CLR,,0.02,WeatherDisplay:10.37,2013-04-08 04:10:00,
2013-04-07 23:15:00,56.3,39.4,29.84,ENE,72,0.0,2.0,53,0.00,CLR,,0.02,WeatherDisplay:10.37,2013-04-08 04:15:00,
2013-04-07 23:20:00,56.6,39.6,29.84,ENE,72,0.0,2.0,53,0.00,CLR,,0.02,WeatherDisplay:10.37,2013-04-08 04:20:00,
2013-04-07 23:25:00,56.9,39.9,29.84,ENE,72,0.0,2.0,53,0.00,CLR,,0.02,WeatherDisplay:10.37,2013-04-08 04:25:00,
2013-04-07 23:30:00,57.0,39.5,29.84,ENE,72,0.0,2.0,52,0.00,CLR,,0.02,WeatherDisplay:10.37,2013-04-08 04:30:00,
2013-04-07 23:35:00,57.5,39.5,29.84,ENE,72,1.0,3.0,51,0.00,CLR,,0.02,WeatherDisplay:10.37,2013-04-08 04:35:00,
2013-04-07 23:45:00,57.5,40.0,29.84,ENE,72,0.0,2.0,52,0.00,CLR,,0.02,WeatherDisplay:10.37,2013-04-08 04:45:00,
2013-04-07 23:50:00,57.4,39.9,29.84,ENE,72,0.0,0.0,52,0.00,CLR,,0.02,WeatherDisplay:10.37,2013-04-08 04:50:00,
2013-04-07 23:55:00,57.3,39.8,29.84,ENE,72,0.0,2.0,52,0.00,CLR,,0.02,WeatherDisplay:10.37,2013-04-08 04:55:00,